createdAt,value
2024-05-09T00:01:07.277Z,7.30
2024-05-09T00:03:37.221Z,6.63
2024-05-09T00:06:07.827Z,8.07
2024-05-09T00:08:37.830Z,44.63
2024-05-09T00:11:07.926Z,57.10
2024-05-09T00:13:37.842Z,37.67
2024-05-09T00:16:10.541Z,25.92
2024-05-09T00:18:40.360Z,9.25
2024-05-09T00:21:10.882Z,7.15
2024-05-09T00:23:40.782Z,9.20
2024-05-09T00:26:10.718Z,15.23
2024-05-09T00:28:40.537Z,11.45
2024-05-09T00:31:13.154Z,12.00
2024-05-09T00:33:43.055Z,32.35
2024-05-09T00:36:12.852Z,39.42
2024-05-09T00:38:42.617Z,16.20
2024-05-09T00:41:12.450Z,37.25
2024-05-09T00:43:42.143Z,30.80
2024-05-09T00:46:14.639Z,26.85
2024-05-09T00:48:44.620Z,22.52
2024-05-09T00:51:14.645Z,19.03
2024-05-09T00:53:44.711Z,13.25
2024-05-09T00:56:14.807Z,10.85
2024-05-09T00:58:45.789Z,10.45
2024-05-09T01:01:23.190Z,9.60
2024-05-09T01:03:53.567Z,8.00
2024-05-09T01:06:24.282Z,6.85
2024-05-09T01:08:54.374Z,7.32
2024-05-09T01:11:24.424Z,6.88
2024-05-09T01:13:54.357Z,7.85
2024-05-09T01:16:26.787Z,7.57
2024-05-09T01:18:56.954Z,7.93
2024-05-09T01:21:27.202Z,7.75
2024-05-09T01:23:59.498Z,6.88
2024-05-09T01:26:29.296Z,7.75
2024-05-09T01:28:59.062Z,7.07
2024-05-09T01:31:29.092Z,6.72
2024-05-09T01:33:58.859Z,8.23
2024-05-09T01:36:28.765Z,8.30
2024-05-09T01:39:01.482Z,8.55
2024-05-09T01:41:31.259Z,7.13
2024-05-09T01:44:00.971Z,7.80
2024-05-09T01:46:30.622Z,7.32
2024-05-09T01:49:19.175Z,7.15
2024-05-09T01:51:48.836Z,8.00
2024-05-09T01:54:21.082Z,8.83
2024-05-09T01:56:50.613Z,8.48
2024-05-09T01:59:20.151Z,8.35
2024-05-09T02:01:56.699Z,8.00
2024-05-09T02:04:27.859Z,6.63
2024-05-09T02:06:57.522Z,7.47
2024-05-09T02:09:29.695Z,7.03
2024-05-09T02:11:59.340Z,8.48
2024-05-09T02:14:29.050Z,7.30
2024-05-09T02:16:58.649Z,7.47
2024-05-09T02:19:28.562Z,7.47
2024-05-09T02:21:58.116Z,7.32
2024-05-09T02:24:30.286Z,7.18
2024-05-09T02:27:00.033Z,9.20
2024-05-09T02:29:29.893Z,6.47
2024-05-09T02:31:59.552Z,6.93
2024-05-09T02:34:29.156Z,6.93
2024-05-09T02:36:58.756Z,7.88
2024-05-09T02:39:28.283Z,8.15
2024-05-09T02:41:57.887Z,8.57
2024-05-09T02:44:25.093Z,9.00
2024-05-09T02:46:54.856Z,7.57
2024-05-09T02:49:22.034Z,7.70
2024-05-09T02:51:51.610Z,7.15
2024-05-09T02:54:18.547Z,7.38
2024-05-09T02:56:50.699Z,7.80
2024-05-09T02:59:17.685Z,7.28
2024-05-09T03:01:47.448Z,8.90
2024-05-09T03:04:14.554Z,8.43
2024-05-09T03:06:44.124Z,8.43
2024-05-09T03:09:11.055Z,7.57
2024-05-09T03:11:40.810Z,7.35
2024-05-09T03:14:10.529Z,9.27
2024-05-09T03:16:40.689Z,7.60
2024-05-09T03:19:07.755Z,6.93
2024-05-09T03:21:40.826Z,7.43
2024-05-09T03:24:07.910Z,7.85
2024-05-09T03:26:37.585Z,7.38
2024-05-09T03:29:04.718Z,6.95
2024-05-09T03:31:37.025Z,7.28
2024-05-09T03:34:04.227Z,8.50
2024-05-09T03:36:34.173Z,6.35
2024-05-09T03:39:03.672Z,5.78
2024-05-09T03:41:33.354Z,7.88
2024-05-09T03:44:02.986Z,7.78
2024-05-09T03:46:30.045Z,10.23
2024-05-09T03:49:02.363Z,6.75
2024-05-09T03:51:29.403Z,8.10
2024-05-09T03:53:59.975Z,10.20
2024-05-09T03:56:27.025Z,7.70
2024-05-09T03:58:58.087Z,7.90
2024-05-09T04:01:25.515Z,9.02
2024-05-09T04:03:55.264Z,8.98
2024-05-09T04:06:26.173Z,8.25
2024-05-09T04:08:55.895Z,7.75
2024-05-09T04:11:23.006Z,7.30
2024-05-09T04:13:52.708Z,8.50
2024-05-09T04:16:19.714Z,7.47
2024-05-09T04:18:49.505Z,7.10
2024-05-09T04:21:18.181Z,6.35
2024-05-09T04:23:50.448Z,6.83
2024-05-09T04:26:17.511Z,7.53
2024-05-09T04:28:47.178Z,7.43
2024-05-09T04:31:14.608Z,6.78
2024-05-09T04:33:44.356Z,7.57
2024-05-09T04:36:11.444Z,6.87
2024-05-09T04:38:41.035Z,7.82
2024-05-09T04:41:10.678Z,7.60
2024-05-09T04:43:40.266Z,6.43
2024-05-09T04:46:07.207Z,7.47
2024-05-09T04:48:36.873Z,9.07
2024-05-09T04:51:04.246Z,8.13
2024-05-09T04:53:33.974Z,7.28
2024-05-09T04:56:01.027Z,5.72
2024-05-09T04:58:33.141Z,6.55
2024-05-09T05:01:00.987Z,6.73
2024-05-09T05:03:30.707Z,6.53
2024-05-09T05:05:57.985Z,7.45
2024-05-09T05:08:27.675Z,7.78
2024-05-09T05:10:54.747Z,6.80
2024-05-09T05:13:25.232Z,8.47
2024-05-09T05:15:57.239Z,7.13
2024-05-09T05:18:28.608Z,6.47
2024-05-09T05:20:56.577Z,7.47
2024-05-09T05:23:27.013Z,8.70
2024-05-09T05:25:54.859Z,8.23
2024-05-09T05:28:24.748Z,8.80
2024-05-09T05:30:54.272Z,8.85
2024-05-09T05:33:24.494Z,8.57
2024-05-09T05:35:51.563Z,7.78
2024-05-09T05:38:24.954Z,9.57
2024-05-09T05:40:54.466Z,8.02
2024-05-09T05:43:24.196Z,9.38
2024-05-09T05:45:51.148Z,8.68
2024-05-09T05:48:23.673Z,8.48
2024-05-09T05:50:50.763Z,11.77
2024-05-09T05:53:20.338Z,9.02
2024-05-09T05:55:47.436Z,10.00
2024-05-09T05:58:17.105Z,11.68
2024-05-09T06:00:44.596Z,10.90
2024-05-09T06:03:14.959Z,8.23
2024-05-09T06:05:45.928Z,11.60
2024-05-09T06:08:15.829Z,10.95
2024-05-09T06:10:43.034Z,11.75
2024-05-09T06:13:13.837Z,9.55
2024-05-09T06:15:41.853Z,10.40
2024-05-09T06:18:12.813Z,12.50
2024-05-09T06:20:41.886Z,10.43
2024-05-09T06:23:15.177Z,11.15
2024-05-09T06:25:42.795Z,10.48
2024-05-09T06:28:12.555Z,10.67
2024-05-09T06:30:42.417Z,10.57
2024-05-09T06:33:15.731Z,10.40
2024-05-09T06:35:44.057Z,9.93
2024-05-09T06:38:16.703Z,9.45
2024-05-09T06:40:44.560Z,11.20
2024-05-09T06:43:16.916Z,10.90
2024-05-09T06:45:46.919Z,12.98
2024-05-09T06:48:17.234Z,11.77
2024-05-09T06:50:44.435Z,13.00
2024-05-09T06:53:17.402Z,11.97
2024-05-09T06:55:44.789Z,11.77
2024-05-09T06:58:14.695Z,11.13
2024-05-09T07:00:42.425Z,11.02
2024-05-09T07:03:14.284Z,9.75
2024-05-09T07:05:44.054Z,10.90
2024-05-09T07:08:17.155Z,10.63
2024-05-09T07:10:44.535Z,10.45
2024-05-09T07:13:16.028Z,11.20
2024-05-09T07:15:43.557Z,12.95
2024-05-09T07:18:15.583Z,11.33
2024-05-09T07:20:43.233Z,11.32
2024-05-09T07:23:13.259Z,12.52
2024-05-09T07:25:43.000Z,13.98
2024-05-09T07:28:14.114Z,9.77
2024-05-09T07:30:41.634Z,10.23
2024-05-09T07:33:12.207Z,11.68
2024-05-09T07:35:39.923Z,12.85
2024-05-09T07:38:11.341Z,10.05
2024-05-09T07:40:39.284Z,11.52
2024-05-09T07:43:14.213Z,10.33
2024-05-09T07:45:50.693Z,9.52
2024-05-09T07:52:38.410Z,9.00
2024-05-09T07:53:49.213Z,9.45
2024-05-09T07:56:22.130Z,11.47
2024-05-09T07:58:56.171Z,10.60
2024-05-09T08:01:27.537Z,9.10
2024-05-09T08:03:55.232Z,9.27
2024-05-09T08:06:26.059Z,8.27
2024-05-09T08:08:53.314Z,9.27
2024-05-09T08:11:23.767Z,9.07
2024-05-09T08:13:53.953Z,9.57
2024-05-09T08:16:23.859Z,8.45
2024-05-09T08:18:50.963Z,8.60
2024-05-09T08:21:20.528Z,10.13
2024-05-09T08:23:47.572Z,10.65
2024-05-09T08:26:17.163Z,9.90
2024-05-09T08:28:44.164Z,8.88
2024-05-09T08:31:16.483Z,9.32
2024-05-09T08:33:44.492Z,7.63
2024-05-09T08:36:14.117Z,8.95
2024-05-09T08:38:41.050Z,7.00
2024-05-09T08:41:10.736Z,8.50
2024-05-09T08:43:40.679Z,7.32
2024-05-09T08:46:12.757Z,6.80
2024-05-09T08:48:45.687Z,7.05
2024-05-09T08:51:17.151Z,8.45
2024-05-09T08:53:44.193Z,7.45
2024-05-09T08:56:14.223Z,15.30
2024-05-09T08:58:42.606Z,12.13
2024-05-09T09:01:12.657Z,10.82
2024-05-09T09:03:43.534Z,10.82
2024-05-09T09:06:15.457Z,7.10
2024-05-09T09:08:43.041Z,7.45
2024-05-09T09:11:13.520Z,9.10
2024-05-09T09:13:40.510Z,8.05
2024-05-09T09:16:10.687Z,7.53
2024-05-09T09:18:37.906Z,6.88
2024-05-09T09:21:12.890Z,7.38
2024-05-09T09:23:39.918Z,7.03
2024-05-09T09:26:09.696Z,8.10
2024-05-09T09:28:36.842Z,6.25
2024-05-09T09:31:07.177Z,7.55
2024-05-09T09:33:36.173Z,6.63
2024-05-09T09:36:08.396Z,6.83
2024-05-09T09:38:40.576Z,6.25
2024-05-09T09:41:11.665Z,7.97
2024-05-09T09:43:39.887Z,6.95
2024-05-09T09:46:12.780Z,5.65
2024-05-09T09:48:40.623Z,7.07
2024-05-09T09:51:11.102Z,6.30
2024-05-09T09:53:42.460Z,7.35
2024-05-09T09:56:12.778Z,6.10
2024-05-09T09:58:40.443Z,7.07
2024-05-09T10:01:10.276Z,10.33
2024-05-09T10:03:37.695Z,7.30
2024-05-09T10:06:08.790Z,7.93
2024-05-09T10:08:36.639Z,7.32
2024-05-09T10:11:09.137Z,5.93
2024-05-09T10:13:36.449Z,8.07
2024-05-09T10:16:12.148Z,7.07
2024-05-09T10:18:40.748Z,9.00
2024-05-09T10:21:20.435Z,6.60
2024-05-09T10:23:58.176Z,8.75
2024-05-09T10:26:37.761Z,9.23
2024-05-09T10:29:12.217Z,10.07
2024-05-09T10:31:44.212Z,7.18
2024-05-09T10:34:20.200Z,9.30
2024-05-09T10:36:52.292Z,9.65
2024-05-09T10:39:22.837Z,7.97
2024-05-09T10:41:52.620Z,8.77
2024-05-09T10:44:24.081Z,8.98
2024-05-09T10:46:51.328Z,9.75
2024-05-09T10:49:21.204Z,9.57
2024-05-09T10:51:48.751Z,8.47
2024-05-09T10:54:18.635Z,8.00
2024-05-09T10:56:45.592Z,8.95
2024-05-09T10:59:17.930Z,11.82
2024-05-09T11:01:45.015Z,8.30
2024-05-09T11:04:15.029Z,8.57
2024-05-09T11:06:42.929Z,8.02
2024-05-09T11:09:13.211Z,8.77
2024-05-09T11:11:40.489Z,7.93
2024-05-09T11:14:18.677Z,8.63
2024-05-09T11:16:45.742Z,8.30
2024-05-09T11:19:18.605Z,9.27
2024-05-09T11:21:51.055Z,8.02
2024-05-09T11:24:20.931Z,8.40
2024-05-09T11:26:47.975Z,9.07
2024-05-09T11:29:20.125Z,8.13
2024-05-09T11:31:47.973Z,8.63
2024-05-09T11:34:18.085Z,8.13
2024-05-09T11:36:45.280Z,8.70
2024-05-09T11:39:15.257Z,7.53
2024-05-09T11:41:42.447Z,7.97
2024-05-09T11:44:13.110Z,8.23
2024-05-09T11:46:42.849Z,7.55
2024-05-09T11:49:12.845Z,10.32
2024-05-09T11:51:39.980Z,8.82
2024-05-09T11:54:10.086Z,7.93
2024-05-09T11:56:37.313Z,7.90
2024-05-09T11:59:06.811Z,8.35
2024-05-09T12:01:34.066Z,9.43
2024-05-09T12:04:07.008Z,8.43
2024-05-09T12:06:34.202Z,8.57
2024-05-09T12:09:03.806Z,8.93
2024-05-09T12:11:30.817Z,8.98
2024-05-09T12:14:00.480Z,9.25
2024-05-09T12:16:27.509Z,8.85
2024-05-09T12:18:57.404Z,9.40
2024-05-09T12:21:27.640Z,8.65
2024-05-09T12:23:57.241Z,7.43
2024-05-09T12:26:24.411Z,10.57
2024-05-09T12:28:53.985Z,6.75
2024-05-09T12:31:21.022Z,8.17
2024-05-09T12:33:50.721Z,9.20
2024-05-09T12:36:17.956Z,9.52
2024-05-09T12:38:50.429Z,8.80
2024-05-09T12:41:17.463Z,9.43
2024-05-09T12:43:47.098Z,8.83
2024-05-09T12:46:14.476Z,9.02
2024-05-09T12:48:44.313Z,8.45
2024-05-09T12:51:11.497Z,8.85
2024-05-09T12:53:41.116Z,11.18
2024-05-09T12:56:10.947Z,7.63
2024-05-09T12:58:40.983Z,7.75
2024-05-09T13:01:07.981Z,9.02
2024-05-09T13:03:37.758Z,9.77
2024-05-09T13:06:05.240Z,7.43
2024-05-09T13:08:34.907Z,7.47
2024-05-09T13:11:01.905Z,7.75
2024-05-09T13:13:34.056Z,6.85
2024-05-09T13:16:01.039Z,7.55
2024-05-09T13:18:30.806Z,12.43
2024-05-09T13:20:57.821Z,9.53
2024-05-09T13:23:27.313Z,6.70
2024-05-09T13:25:54.646Z,8.05
2024-05-09T13:28:24.491Z,7.32
2024-05-09T13:30:54.251Z,6.65
2024-05-09T13:33:24.280Z,6.73
2024-05-09T13:35:51.522Z,7.65
2024-05-09T13:38:21.889Z,6.25
2024-05-09T13:40:49.986Z,6.35
2024-05-09T13:43:21.835Z,6.78
2024-05-09T13:45:49.378Z,5.40
2024-05-09T13:48:21.757Z,5.75
2024-05-09T13:50:48.902Z,5.88
2024-05-09T13:53:18.585Z,6.15
2024-05-09T13:55:45.691Z,5.63
2024-05-09T13:58:15.995Z,5.93
2024-05-09T14:00:47.959Z,6.95
2024-05-09T14:03:22.011Z,6.43
2024-05-09T14:05:50.902Z,10.18
2024-05-09T14:08:22.323Z,7.07
2024-05-09T14:10:50.817Z,8.60
2024-05-09T14:13:20.631Z,6.30
2024-05-09T14:15:48.031Z,5.30
2024-05-09T14:18:17.843Z,7.65
2024-05-09T14:20:47.518Z,5.85
2024-05-09T14:23:17.770Z,7.17
2024-05-09T14:25:46.585Z,6.68
2024-05-09T14:28:19.050Z,6.82
2024-05-09T14:30:46.682Z,6.85
2024-05-09T14:33:20.576Z,6.78
2024-05-09T14:35:50.275Z,7.13
2024-05-09T14:38:19.834Z,5.43
2024-05-09T14:40:46.908Z,9.90
2024-05-09T14:43:17.695Z,5.80
2024-05-09T14:45:45.119Z,6.63
2024-05-09T14:48:17.079Z,6.60
2024-05-09T14:50:46.860Z,5.90
2024-05-09T14:53:16.330Z,6.00
2024-05-09T14:55:45.962Z,7.32
2024-05-09T14:58:13.643Z,6.70
2024-05-09T15:00:48.513Z,6.27
2024-05-09T15:03:18.752Z,6.10
2024-05-09T15:05:49.683Z,6.82
2024-05-09T15:08:20.325Z,6.72
2024-05-09T15:10:50.977Z,7.68
2024-05-09T15:13:18.567Z,8.50
2024-05-09T15:15:48.581Z,7.28
2024-05-09T15:18:16.397Z,6.95
2024-05-09T15:20:46.755Z,7.15
2024-05-09T15:23:13.992Z,7.03
2024-05-09T15:25:47.425Z,7.67
2024-05-09T15:28:14.621Z,7.40
2024-05-09T15:30:46.490Z,6.43
2024-05-09T15:33:14.385Z,7.85
2024-05-09T15:35:46.223Z,7.10
2024-05-09T15:38:14.593Z,7.07
2024-05-09T15:40:47.063Z,6.25
2024-05-09T15:43:14.451Z,7.13
2024-05-09T15:45:45.013Z,8.00
2024-05-09T15:48:12.478Z,6.22
2024-05-09T15:50:42.878Z,7.47
2024-05-09T15:53:12.191Z,6.95
2024-05-09T15:55:42.739Z,6.03
2024-05-09T15:58:13.164Z,7.65
2024-05-09T16:00:46.284Z,8.45
2024-05-09T16:03:15.647Z,7.57
2024-05-09T16:05:47.599Z,6.70
2024-05-09T16:08:15.843Z,9.02
2024-05-09T16:10:46.443Z,8.25
2024-05-09T16:13:17.634Z,6.88
2024-05-09T16:15:48.313Z,6.67
2024-05-09T16:18:15.813Z,7.43
2024-05-09T16:20:49.228Z,6.50
2024-05-09T16:23:17.326Z,6.57
2024-05-09T16:25:48.267Z,8.02
2024-05-09T16:28:18.527Z,6.57
2024-05-09T16:30:48.275Z,6.95
2024-05-09T16:33:15.402Z,7.20
2024-05-09T16:35:44.953Z,6.45
2024-05-09T16:38:12.467Z,6.20
2024-05-09T16:40:42.040Z,7.47
2024-05-09T16:43:10.090Z,7.07
2024-05-09T16:45:45.180Z,7.50
2024-05-09T16:48:14.066Z,7.32
2024-05-09T16:50:44.097Z,6.93
2024-05-09T16:53:11.473Z,8.20
2024-05-09T16:55:41.027Z,6.57
2024-05-09T16:58:08.648Z,9.73
2024-05-09T17:00:42.364Z,8.65
2024-05-09T17:03:15.212Z,7.88
2024-05-09T17:05:47.257Z,9.30
2024-05-09T17:08:15.778Z,8.55
2024-05-09T17:10:45.543Z,8.68
2024-05-09T17:13:15.211Z,9.57
2024-05-09T17:15:44.861Z,8.82
2024-05-09T17:18:17.270Z,7.47
2024-05-09T17:20:46.830Z,8.75
2024-05-09T17:23:14.443Z,7.95
2024-05-09T17:25:45.062Z,8.77
2024-05-09T17:28:12.568Z,10.18
2024-05-09T17:30:42.986Z,8.83
2024-05-09T17:33:12.837Z,8.65
2024-05-09T17:35:46.107Z,7.57
2024-05-09T17:38:13.376Z,8.20
2024-05-09T17:40:43.550Z,8.48
2024-05-09T17:43:11.180Z,9.10
2024-05-09T17:45:41.878Z,7.95
2024-05-09T17:48:10.382Z,8.35
2024-05-09T17:50:41.850Z,7.75
2024-05-09T17:53:11.844Z,10.20
2024-05-09T17:55:42.594Z,8.40
2024-05-09T17:58:10.176Z,8.90
2024-05-09T18:00:42.168Z,9.57
2024-05-09T18:03:12.042Z,8.75
2024-05-09T18:05:44.415Z,10.25
2024-05-09T18:08:14.921Z,8.23
2024-05-09T18:10:44.867Z,7.63
2024-05-09T18:13:12.939Z,9.57
2024-05-09T18:15:42.804Z,8.90
2024-05-09T18:18:11.157Z,8.70
2024-05-09T18:20:44.798Z,7.97
2024-05-09T18:23:18.166Z,8.93
2024-05-09T18:25:48.742Z,8.55
2024-05-09T18:28:16.940Z,8.90
2024-05-09T18:30:47.705Z,7.13
2024-05-09T18:33:15.060Z,6.77
2024-05-09T18:35:45.795Z,6.78
2024-05-09T18:38:15.581Z,8.15
2024-05-09T18:40:48.304Z,7.05
2024-05-09T18:43:16.680Z,8.77
2024-05-09T18:45:49.118Z,7.53
2024-05-09T18:48:16.510Z,8.18
2024-05-09T18:50:46.422Z,8.38
2024-05-09T18:53:16.248Z,8.20
2024-05-09T18:55:45.863Z,7.75
2024-05-09T18:58:13.092Z,10.17
2024-05-09T19:00:45.407Z,8.15
2024-05-09T19:03:17.911Z,8.60
2024-05-09T19:05:46.435Z,7.63
2024-05-09T19:08:19.115Z,7.18
2024-05-09T19:10:46.556Z,7.43
2024-05-09T19:13:16.621Z,8.35
2024-05-09T19:15:44.507Z,7.85
2024-05-09T19:18:15.444Z,6.45
2024-05-09T19:20:43.390Z,7.72
2024-05-09T19:23:14.035Z,7.13
2024-05-09T19:25:43.561Z,6.80
2024-05-09T19:28:13.126Z,7.18
2024-05-09T19:30:42.451Z,6.05
2024-05-09T19:33:14.187Z,6.65
2024-05-09T19:35:41.814Z,6.93
2024-05-09T19:38:11.718Z,6.78
2024-05-09T19:40:39.082Z,7.43
2024-05-09T19:43:11.777Z,9.85
2024-05-09T19:45:39.211Z,11.20
2024-05-09T19:48:09.980Z,7.60
2024-05-09T19:50:42.533Z,9.20
2024-05-09T19:53:14.439Z,6.80
2024-05-09T19:55:42.550Z,8.80
2024-05-09T19:58:14.834Z,7.15
2024-05-09T20:00:43.673Z,9.07
2024-05-09T20:03:15.562Z,7.10
2024-05-09T20:05:45.016Z,8.32
2024-05-09T20:08:15.055Z,7.30
2024-05-09T20:10:42.386Z,7.50
2024-05-09T20:13:12.633Z,6.60
2024-05-09T20:15:42.590Z,6.53
2024-05-09T20:18:12.302Z,8.27
2024-05-09T20:20:42.532Z,8.20
2024-05-09T20:23:13.747Z,6.93
2024-05-09T20:25:41.540Z,8.27
2024-05-09T20:28:11.472Z,8.77
2024-05-09T20:30:38.891Z,7.32
2024-05-09T20:33:12.686Z,6.90
2024-05-09T20:35:40.060Z,6.47
2024-05-09T20:38:10.039Z,9.17
2024-05-09T20:40:39.200Z,7.65
2024-05-09T20:43:11.003Z,6.50
2024-05-09T20:45:38.410Z,7.03
2024-05-09T20:48:12.171Z,7.55
2024-05-09T20:50:41.801Z,9.30
2024-05-09T20:53:14.627Z,7.13
2024-05-09T20:55:42.732Z,8.52
2024-05-09T20:58:12.969Z,7.88
2024-05-09T21:00:43.802Z,6.07
2024-05-09T21:03:18.365Z,8.00
2024-05-09T21:05:46.391Z,7.45
2024-05-09T21:08:16.633Z,7.40
2024-05-09T21:10:43.763Z,7.80
2024-05-09T21:13:13.765Z,8.02
2024-05-09T21:15:41.050Z,8.13
2024-05-09T21:18:11.286Z,7.18
2024-05-09T21:20:43.613Z,8.30
2024-05-09T21:23:13.272Z,7.90
2024-05-09T21:25:40.467Z,7.63
2024-05-09T21:28:10.274Z,7.20
2024-05-09T21:30:41.658Z,9.40
2024-05-09T21:33:14.672Z,8.40
2024-05-09T21:35:45.242Z,7.90
2024-05-09T21:38:16.105Z,8.50
2024-05-09T21:40:43.698Z,7.33
2024-05-09T21:43:14.402Z,7.60
2024-05-09T21:45:41.707Z,8.75
2024-05-09T21:48:11.591Z,7.68
2024-05-09T21:50:41.322Z,8.27
2024-05-09T21:53:14.794Z,8.47
2024-05-09T21:55:42.159Z,7.43
2024-05-09T21:58:11.879Z,8.48
2024-05-09T22:00:40.965Z,7.22
2024-05-09T22:03:12.307Z,7.38
2024-05-09T22:05:43.423Z,8.67
2024-05-09T22:08:15.792Z,8.55
2024-05-09T22:10:42.941Z,7.72
2024-05-09T22:13:12.668Z,8.77
2024-05-09T22:15:40.664Z,7.72
2024-05-09T22:18:11.843Z,8.03
2024-05-09T22:20:44.660Z,7.95
2024-05-09T22:23:18.365Z,9.93
2024-05-09T22:25:45.393Z,9.13
2024-05-09T22:28:17.122Z,8.70
2024-05-09T22:30:46.069Z,8.67
2024-05-09T22:33:17.256Z,8.13
2024-05-09T22:35:44.417Z,10.82
2024-05-09T22:38:13.972Z,9.10
2024-05-09T22:40:48.316Z,8.20
2024-05-09T22:43:23.870Z,8.23
2024-05-09T22:45:52.402Z,9.23
2024-05-09T22:48:23.382Z,9.02
2024-05-09T22:50:50.732Z,8.05
2024-05-09T22:53:20.757Z,7.43
2024-05-09T22:55:50.494Z,8.60
2024-05-09T22:58:20.790Z,12.70
2024-05-09T23:00:48.027Z,8.32
2024-05-09T23:03:20.842Z,8.63
2024-05-09T23:05:48.716Z,9.25
2024-05-09T23:08:18.229Z,7.63
2024-05-09T23:10:45.144Z,7.82
2024-05-09T23:13:17.484Z,7.65
2024-05-09T23:15:44.574Z,9.52
2024-05-09T23:18:14.205Z,9.05
2024-05-09T23:20:41.221Z,7.93
2024-05-09T23:23:12.343Z,9.43
2024-05-09T23:25:41.433Z,8.93
2024-05-09T23:28:11.615Z,9.07
2024-05-09T23:30:42.163Z,9.75
2024-05-09T23:33:14.320Z,8.77
2024-05-09T23:35:42.454Z,8.88
2024-05-09T23:38:11.992Z,9.18
2024-05-09T23:40:41.120Z,9.60
2024-05-09T23:43:12.681Z,9.63
2024-05-09T23:45:43.682Z,9.00
2024-05-09T23:48:13.531Z,10.95
2024-05-09T23:50:41.501Z,9.50
2024-05-09T23:53:11.531Z,10.93
2024-05-09T23:55:39.171Z,10.52
2024-05-09T23:58:09.556Z,10.03
